createdAt,value
2022-11-27T00:03:59.932Z,6.14
2022-11-27T00:09:06.253Z,6.46
2022-11-27T00:14:11.289Z,6.55
2022-11-27T00:19:13.732Z,6.66
2022-11-27T00:24:16.153Z,6.59
2022-11-27T00:29:18.617Z,6.51
2022-11-27T00:34:21.170Z,5.75
2022-11-27T00:39:23.595Z,5.73
2022-11-27T00:44:26.052Z,5.81
2022-11-27T00:49:28.672Z,5.87
2022-11-27T00:54:31.397Z,5.84
2022-11-27T00:59:34.002Z,6.02
2022-11-27T01:04:36.386Z,6.02
2022-11-27T01:09:38.888Z,5.80
2022-11-27T01:14:41.707Z,5.50
2022-11-27T01:19:44.273Z,5.52
2022-11-27T01:24:46.668Z,5.03
2022-11-27T01:29:49.040Z,4.86
2022-11-27T01:34:52.442Z,4.26
2022-11-27T01:39:56.775Z,3.99
2022-11-27T01:44:59.523Z,3.81
2022-11-27T01:50:13.679Z,3.57
2022-11-27T01:55:23.107Z,3.92
2022-11-27T02:00:26.036Z,4.28
2022-11-27T02:05:29.414Z,4.48
2022-11-27T02:11:12.192Z,4.58
2022-11-27T02:16:33.174Z,4.65
2022-11-27T02:21:44.731Z,4.54
2022-11-27T02:27:01.818Z,4.70
2022-11-27T02:32:16.211Z,4.90
2022-11-27T02:37:42.814Z,5.14
2022-11-27T02:42:57.957Z,5.16
2022-11-27T02:48:00.627Z,5.02
2022-11-27T02:53:07.780Z,5.00
2022-11-27T02:58:16.801Z,4.87
2022-11-27T03:03:26.137Z,5.07
2022-11-27T03:09:02.919Z,5.28
2022-11-27T03:14:08.686Z,4.89
2022-11-27T03:19:26.335Z,5.14
2022-11-27T03:24:31.385Z,5.12
2022-11-27T03:29:43.305Z,5.12
2022-11-27T03:34:47.036Z,5.34
2022-11-27T03:39:50.006Z,5.34
2022-11-27T03:45:01.638Z,4.78
2022-11-27T03:50:15.904Z,4.50
2022-11-27T03:55:27.996Z,4.28
2022-11-27T04:00:38.483Z,3.71
2022-11-27T04:05:40.972Z,3.36
2022-11-27T04:10:43.349Z,3.28
2022-11-27T04:15:45.916Z,3.27
2022-11-27T04:20:48.390Z,3.27
2022-11-27T04:25:51.081Z,3.46
2022-11-27T04:30:54.954Z,3.62
2022-11-27T04:35:57.350Z,3.65
2022-11-27T04:40:59.764Z,4.21
2022-11-27T04:46:02.556Z,4.38
2022-11-27T04:51:05.288Z,3.71
2022-11-27T04:56:07.835Z,3.76
2022-11-27T05:01:10.574Z,4.19
2022-11-27T05:06:13.073Z,4.40
2022-11-27T05:11:17.653Z,4.35
2022-11-27T05:16:20.055Z,4.62
2022-11-27T05:21:22.665Z,4.39
2022-11-27T05:26:25.034Z,4.33
2022-11-27T05:31:27.470Z,4.10
2022-11-27T05:36:31.175Z,3.91
2022-11-27T05:41:35.403Z,3.63
2022-11-27T05:46:37.841Z,3.80
2022-11-27T05:51:41.967Z,4.16
2022-11-27T05:56:46.927Z,4.21
2022-11-27T06:01:49.756Z,4.19
2022-11-27T06:06:52.439Z,4.01
2022-11-27T06:11:54.887Z,3.61
2022-11-27T06:16:57.586Z,3.07
2022-11-27T06:22:00.248Z,2.72
2022-11-27T06:27:03.142Z,2.71
2022-11-27T06:32:06.723Z,2.56
2022-11-27T06:37:13.144Z,2.39
2022-11-27T06:42:16.082Z,2.55
2022-11-27T06:47:18.502Z,3.21
2022-11-27T06:52:20.943Z,3.09
2022-11-27T06:57:23.402Z,2.98
2022-11-27T07:02:26.237Z,2.71
2022-11-27T07:07:28.938Z,3.14
2022-11-27T07:12:31.615Z,3.64
2022-11-27T07:17:34.802Z,3.95
2022-11-27T07:22:37.210Z,3.96
2022-11-27T07:27:39.550Z,4.46
2022-11-27T07:32:42.026Z,4.61
2022-11-27T07:37:44.435Z,4.82
2022-11-27T07:42:46.888Z,4.52
2022-11-27T07:47:51.313Z,4.77
2022-11-27T07:52:53.734Z,4.86
2022-11-27T07:57:56.194Z,5.29
2022-11-27T08:03:00.239Z,5.25
2022-11-27T08:08:04.628Z,4.95
2022-11-27T08:13:07.401Z,4.46
2022-11-27T08:18:09.876Z,4.52
2022-11-27T08:23:15.327Z,4.66
2022-11-27T08:28:20.633Z,4.92
2022-11-27T08:33:23.099Z,5.17
2022-11-27T08:38:25.627Z,5.15
2022-11-27T08:43:28.861Z,5.14
2022-11-27T08:48:31.754Z,4.92
2022-11-27T08:53:34.836Z,5.12
2022-11-27T08:58:37.590Z,5.42
2022-11-27T09:03:40.170Z,5.66
2022-11-27T09:08:43.886Z,5.57
2022-11-27T09:13:47.263Z,5.59
2022-11-27T09:18:51.616Z,5.62
2022-11-27T09:23:55.432Z,5.71
2022-11-27T09:29:00.195Z,6.00
2022-11-27T09:34:04.975Z,6.22
2022-11-27T09:39:07.453Z,6.29
2022-11-27T09:44:18.638Z,6.79
2022-11-27T09:49:45.752Z,6.32
2022-11-27T09:55:01.616Z,6.81
2022-11-27T10:00:19.539Z,6.73
2022-11-27T10:05:25.942Z,7.02
2022-11-27T10:10:49.550Z,7.72
2022-11-27T10:16:14.535Z,7.91
2022-11-27T10:21:24.324Z,7.95
2022-11-27T10:26:40.417Z,7.88
2022-11-27T10:31:49.537Z,7.75
2022-11-27T10:36:53.910Z,7.59
2022-11-27T10:42:04.383Z,7.91
2022-11-27T10:47:11.047Z,8.49
2022-11-27T10:52:16.611Z,8.83
2022-11-27T10:57:48.871Z,8.68
2022-11-27T11:03:04.769Z,9.76
2022-11-27T11:08:17.102Z,10.85
2022-11-27T11:13:42.847Z,12.76
2022-11-27T11:18:46.744Z,14.34
2022-11-27T11:24:01.705Z,15.49
2022-11-27T11:29:25.554Z,16.09
2022-11-27T11:34:30.251Z,14.58
2022-11-27T11:39:44.011Z,12.94
2022-11-27T11:45:06.527Z,13.01
2022-11-27T11:50:13.526Z,12.52
2022-11-27T11:55:23.263Z,15.55
2022-11-27T12:00:58.594Z,16.95
2022-11-27T12:06:22.959Z,14.72
2022-11-27T12:11:35.300Z,16.19
2022-11-27T12:16:52.921Z,17.48
2022-11-27T12:22:07.403Z,19.45
2022-11-27T12:27:24.686Z,18.26
2022-11-27T12:33:04.245Z,16.97
2022-11-27T12:38:48.791Z,12.66
2022-11-27T12:43:56.147Z,11.24
2022-11-27T12:49:35.117Z,11.17
2022-11-27T12:54:58.902Z,11.17
2022-11-27T13:00:24.161Z,10.80
2022-11-27T13:05:32.615Z,10.15
2022-11-27T13:10:43.428Z,10.16
2022-11-27T13:15:56.251Z,10.30
2022-11-27T13:21:02.803Z,10.14
2022-11-27T13:26:23.238Z,9.85
2022-11-27T13:31:32.618Z,9.89
2022-11-27T13:36:41.655Z,10.29
2022-11-27T13:41:44.361Z,10.13
2022-11-27T13:46:54.900Z,10.15
2022-11-27T13:52:19.144Z,10.02
2022-11-27T13:57:22.349Z,9.91
2022-11-27T14:02:26.074Z,10.09
2022-11-27T14:07:45.352Z,10.05
2022-11-27T14:13:07.641Z,10.19
2022-11-27T14:18:22.767Z,10.18
2022-11-27T14:23:38.107Z,10.03
2022-11-27T14:28:48.414Z,10.08
2022-11-27T14:34:14.154Z,10.11
2022-11-27T14:39:36.081Z,9.79
2022-11-27T14:44:41.172Z,9.82
2022-11-27T14:49:44.262Z,9.53
2022-11-27T14:54:47.171Z,9.82
2022-11-27T15:00:00.606Z,9.75
2022-11-27T15:05:06.212Z,9.88
2022-11-27T15:10:22.309Z,9.50
2022-11-27T15:15:27.593Z,9.40
2022-11-27T15:20:45.054Z,9.69
2022-11-27T15:26:14.954Z,9.48
2022-11-27T15:31:37.605Z,9.32
2022-11-27T15:36:44.311Z,9.50
2022-11-27T15:41:57.598Z,9.65
2022-11-27T15:47:02.394Z,9.35
2022-11-27T15:52:05.219Z,9.11
2022-11-27T15:57:07.692Z,9.00
2022-11-27T16:02:17.260Z,8.90
2022-11-27T16:07:20.486Z,9.07
2022-11-27T16:12:23.068Z,8.87
2022-11-27T16:17:25.462Z,9.03
2022-11-27T16:22:28.066Z,8.97
2022-11-27T16:27:31.009Z,8.88
2022-11-27T16:32:36.975Z,9.18
2022-11-27T16:37:41.061Z,9.12
2022-11-27T16:42:44.011Z,8.98
2022-11-27T16:47:46.958Z,8.90
2022-11-27T16:52:54.464Z,8.52
2022-11-27T16:57:59.228Z,8.60
2022-11-27T17:03:03.807Z,8.64
2022-11-27T17:08:06.821Z,8.45
2022-11-27T17:13:09.278Z,8.23
2022-11-27T17:18:12.095Z,8.48
2022-11-27T17:23:14.459Z,8.64
2022-11-27T17:28:16.911Z,8.62
2022-11-27T17:33:19.376Z,8.05
2022-11-27T17:38:22.163Z,7.79
2022-11-27T17:43:25.664Z,8.18
2022-11-27T17:48:31.662Z,8.03
2022-11-27T17:53:35.353Z,8.04
2022-11-27T17:58:38.891Z,8.13
2022-11-27T18:03:42.613Z,7.70
2022-11-27T18:08:46.764Z,7.85
2022-11-27T18:13:51.155Z,7.98
2022-11-27T18:18:54.286Z,7.77
2022-11-27T18:24:22.099Z,7.89
2022-11-27T18:29:20.237Z,8.10
2022-11-27T18:34:22.690Z,8.24
2022-11-27T18:39:25.533Z,8.46
2022-11-27T18:44:28.095Z,8.53
2022-11-27T18:49:30.748Z,8.40
2022-11-27T18:54:34.289Z,8.16
2022-11-27T18:59:37.390Z,8.08
2022-11-27T19:04:43.326Z,8.19
2022-11-27T19:09:45.904Z,7.88
2022-11-27T19:14:48.818Z,7.71
2022-11-27T19:19:55.088Z,7.96
2022-11-27T19:24:57.914Z,7.91
2022-11-27T19:30:00.483Z,7.63
2022-11-27T19:35:07.191Z,7.62
2022-11-27T19:40:11.197Z,7.95
2022-11-27T19:45:13.620Z,7.83
2022-11-27T19:50:16.409Z,7.64
2022-11-27T19:55:19.300Z,7.69
2022-11-27T20:00:22.165Z,7.55
2022-11-27T20:05:24.650Z,7.50
2022-11-27T20:10:27.400Z,7.86
2022-11-27T20:15:30.510Z,8.18
2022-11-27T20:20:34.288Z,7.96
2022-11-27T20:25:40.078Z,8.21
2022-11-27T20:30:44.633Z,8.39
2022-11-27T20:35:47.105Z,8.38
2022-11-27T20:40:50.802Z,8.07
2022-11-27T20:45:55.046Z,7.89
2022-11-27T20:51:04.961Z,7.83
2022-11-27T20:56:09.660Z,8.29
2022-11-27T21:01:24.678Z,8.14
2022-11-27T21:06:32.923Z,7.88
2022-11-27T21:11:37.757Z,7.96
2022-11-27T21:16:43.860Z,7.89
2022-11-27T21:21:48.335Z,7.97
2022-11-27T21:26:51.110Z,7.72
2022-11-27T21:31:54.042Z,7.71
2022-11-27T21:36:56.737Z,7.87
2022-11-27T21:41:59.300Z,7.80
2022-11-27T21:47:02.573Z,7.90
2022-11-27T21:52:06.588Z,7.95
2022-11-27T21:57:09.148Z,8.02
2022-11-27T22:02:14.767Z,8.12
2022-11-27T22:07:17.360Z,7.85
2022-11-27T22:12:19.847Z,7.45
2022-11-27T22:17:24.559Z,7.56
2022-11-27T22:22:28.967Z,7.60
2022-11-27T22:27:31.519Z,7.61
2022-11-27T22:32:34.631Z,7.42
2022-11-27T22:37:37.198Z,7.57
2022-11-27T22:42:39.800Z,7.74
2022-11-27T22:47:42.285Z,7.63
2022-11-27T22:52:44.873Z,7.60
2022-11-27T22:57:47.352Z,7.66
2022-11-27T23:02:49.880Z,7.99
2022-11-27T23:07:53.142Z,7.96
2022-11-27T23:12:55.864Z,7.91
2022-11-27T23:17:58.855Z,7.50
2022-11-27T23:23:01.510Z,7.69
2022-11-27T23:28:05.018Z,7.48
2022-11-27T23:33:07.588Z,7.31
2022-11-27T23:38:09.986Z,7.52
2022-11-27T23:43:12.534Z,7.47
2022-11-27T23:48:15.262Z,7.20
2022-11-27T23:53:17.655Z,7.47
2022-11-27T23:58:20.193Z,6.91
